ETOU/WIE METAR and TAF weather

Enter ICAO airport designator
Station Type Date Time Source
ETOU METAR 2018/07/21 21:56 UTC NOAA

ETOU 212156Z AUTO 00000KT 9999 SCT110 OVC130 19/16 A2991 RMK AO2 SLP126 T01910159 $


Station Type Date Time Source
ETOU Decoded METAR 2018/07/21 21:56 UTC NOAA

Wiesbaden, Germany (ETOU) 50-03N 008-20E
Jul 21, 2018 - 05:56 PM EDT / 2018.07.21 2156 UTC
Wind: Calm:0
Visibility: greater than 7 mile(s):0
Sky conditions: overcast
Temperature: 66.4 F (19.1 C)
Dew Point: 60.6 F (15.9 C)
Relative Humidity: 81%
Pressure (altimeter): 29.91 in. Hg (1012 hPa)
ob: ETOU 212156Z AUTO 00000KT 9999 SCT110 OVC130 19/16 A2991 RMK AO2 SLP126 T01910159
cycle: 22

Station Type Date Time Source
ETOU TAF 2018/07/20 19:07 UTC NOAA

TAF ETOU 201903Z 2019/2201 VRB06KT 9999 SCT070 BKN100 QNH2980INS
BECMG 2115/2116 27009KT 8000 -SHRA SCT050 BKN070 QNH2982INS
TEMPO 2116/2119 27010G20KT 6000 -TSRA SCT050CB BKN070
BECMG 2118/2119 VRB06KT 9999 NSW FEW060 QNH2984INS TX31/2113Z TN16/2103Z LAST NO
AMDS AFT 2019 NEXT 2303


Example: see airport list